Time;durP1;ratioP1;P1;durP2;ratioP2;P2;SDS_P1;SDS_P2;PMS_P1;PMS_P2;Temp;Humidity;BMP_temperature;BMP_pressure;BME280_temperature;BME280_humidity;BME280_pressure;Samples;Min_cycle;Max_cycle;Signal;HPM_P1;HPM_P2
2024/01/26 00:01:25;;;;;;;0.30;0.30;;;;;;;7.77;100.00;100262.31;5019213;28;20041;-58
2024/01/26 00:03:52;;;;;;;0.30;0.30;;;;;;;7.71;100.00;100244.41;5024162;28;20495;-58
2024/01/26 00:06:19;;;;;;;0.20;0.20;;;;;;;7.72;100.00;100246.06;5044105;28;20138;-58
2024/01/26 00:08:46;;;;;;;0.32;0.32;;;;;;;7.73;100.00;100247.72;5024735;28;20131;-58
2024/01/26 00:11:16;;;;;;;0.30;0.30;;;;;;;7.74;100.00;100244.84;5041146;28;20401;-58
2024/01/26 00:13:43;;;;;;;0.30;0.30;;;;;;;7.74;100.00;100238.69;5042236;28;20534;-59
2024/01/26 00:16:10;;;;;;;0.30;0.30;;;;;;;7.72;100.00;100230.06;5041997;28;20129;-59
2024/01/26 00:18:37;;;;;;;0.25;0.25;;;;;;;7.68;100.00;100231.47;5040775;28;20543;-59
2024/01/26 00:21:05;;;;;;;0.32;0.32;;;;;;;7.65;100.00;100223.88;5042086;28;20308;-59
2024/01/26 00:23:32;;;;;;;0.30;0.30;;;;;;;7.64;100.00;100227.53;5042416;28;20450;-59
2024/01/26 00:25:59;;;;;;;0.30;0.30;;;;;;;7.62;100.00;100224.28;5047062;28;20049;-58
2024/01/26 00:28:28;;;;;;;0.30;0.30;;;;;;;7.62;100.00;100218.94;5024371;28;20137;-59
2024/01/26 00:30:55;;;;;;;0.30;0.30;;;;;;;7.63;100.00;100218.72;5040599;28;20138;-59
2024/01/26 00:33:22;;;;;;;0.40;0.40;;;;;;;7.61;100.00;100217.28;5043353;28;20043;-59
2024/01/26 00:35:49;;;;;;;0.30;0.30;;;;;;;7.61;100.00;100211.94;5042220;28;20060;-59
2024/01/26 00:38:16;;;;;;;0.40;0.40;;;;;;;7.65;100.00;100206.00;5043496;28;20568;-59
2024/01/26 00:40:43;;;;;;;0.30;0.30;;;;;;;7.57;100.00;100201.66;5042082;28;20068;-59
2024/01/26 00:43:10;;;;;;;0.30;0.30;;;;;;;7.65;100.00;100207.88;5040215;28;20052;-59
2024/01/26 00:45:39;;;;;;;0.30;0.30;;;;;;;7.64;100.00;100203.53;5003505;28;20054;-59
2024/01/26 00:48:06;;;;;;;0.28;0.28;;;;;;;7.57;100.00;100196.34;5003309;28;20522;-59
2024/01/26 00:50:34;;;;;;;0.30;0.30;;;;;;;7.62;100.00;100197.59;5003772;28;20053;-59
2024/01/26 00:53:01;;;;;;;0.30;0.30;;;;;;;7.62;100.00;100197.59;4999576;28;20065;-59
2024/01/26 00:55:29;;;;;;;0.30;0.30;;;;;;;7.61;100.00;100198.59;5001328;28;20050;-59
2024/01/26 00:57:57;;;;;;;0.30;0.30;;;;;;;7.53;100.00;100187.06;5002549;28;20219;-59
2024/01/26 01:00:24;;;;;;;0.30;0.30;;;;;;;7.55;100.00;100192.22;4998597;28;20053;-59
2024/01/26 01:02:55;;;;;;;0.30;0.30;;;;;;;7.56;100.00;100180.50;5000398;28;20046;-59
2024/01/26 01:05:22;;;;;;;0.30;0.30;;;;;;;7.53;100.00;100184.41;5000723;28;20091;-59
2024/01/26 01:07:49;;;;;;;0.30;0.30;;;;;;;7.52;100.00;100187.28;5000617;28;20046;-59
2024/01/26 01:10:17;;;;;;;0.30;0.30;;;;;;;7.45;100.00;100187.25;5001951;28;20500;-59
2024/01/26 01:12:44;;;;;;;0.30;0.30;;;;;;;7.50;100.00;100184.81;5002416;28;20069;-59
2024/01/26 01:15:11;;;;;;;0.30;0.30;;;;;;;7.63;100.00;100193.91;5000129;28;20100;-59
2024/01/26 01:17:39;;;;;;;0.30;0.30;;;;;;;7.51;100.00;100191.81;4999641;28;20050;-59
2024/01/26 01:20:09;;;;;;;0.30;0.30;;;;;;;7.54;100.00;100183.41;5002119;28;20048;-59
2024/01/26 01:22:36;;;;;;;0.30;0.30;;;;;;;7.59;100.00;100187.28;5007076;28;20045;-59
2024/01/26 01:25:03;;;;;;;0.30;0.30;;;;;;;7.49;100.00;100179.69;5000716;28;20050;-62
2024/01/26 01:27:31;;;;;;;0.30;0.30;;;;;;;7.52;100.00;100187.28;5002982;28;20065;-59
2024/01/26 01:29:59;;;;;;;0.40;0.40;;;;;;;7.53;100.00;100195.06;4999838;28;20507;-59
2024/01/26 01:32:26;;;;;;;0.40;0.40;;;;;;;7.48;100.00;100192.19;4996785;28;20074;-59
2024/01/26 01:34:53;;;;;;;0.40;0.40;;;;;;;7.52;100.00;100198.78;5002163;28;20416;-59
2024/01/26 01:37:21;;;;;;;0.40;0.40;;;;;;;7.49;100.00;100187.69;5003280;28;20185;-59
2024/01/26 01:39:48;;;;;;;0.40;0.40;;;;;;;7.47;100.00;100179.88;5000657;28;20560;-59
2024/01/26 01:42:15;;;;;;;0.30;0.30;;;;;;;7.47;100.00;100171.88;5001912;28;20053;-59
2024/01/26 01:44:43;;;;;;;0.40;0.40;;;;;;;7.48;100.00;100162.84;5015237;28;20087;-59
2024/01/26 01:47:10;;;;;;;0.30;0.30;;;;;;;7.48;100.00;100154.84;5041142;28;20048;-58
2024/01/26 01:49:38;;;;;;;0.30;0.30;;;;;;;7.45;100.00;100155.25;5042063;28;20037;-59
2024/01/26 01:52:06;;;;;;;0.30;0.30;;;;;;;7.41;100.00;100151.31;5040322;28;20163;-59
2024/01/26 01:54:34;;;;;;;0.30;0.30;;;;;;;7.41;100.00;100150.50;5042645;28;20503;-59
2024/01/26 01:57:03;;;;;;;0.30;0.30;;;;;;;7.39;100.00;100141.88;5041986;28;20132;-58
2024/01/26 01:59:30;;;;;;;0.35;0.35;;;;;;;7.42;100.00;100149.50;5041756;28;20061;-59
2024/01/26 02:01:59;;;;;;;0.30;0.30;;;;;;;7.38;100.00;100146.38;5022996;28;20049;-59
2024/01/26 02:04:26;;;;;;;0.30;0.30;;;;;;;7.39;100.00;100150.72;5042037;28;20052;-59
2024/01/26 02:06:54;;;;;;;0.30;0.30;;;;;;;7.30;100.00;100158.06;5023040;28;20064;-59
2024/01/26 02:09:21;;;;;;;0.40;0.40;;;;;;;7.33;100.00;100167.50;5041711;28;20136;-59
2024/01/26 02:11:50;;;;;;;0.30;0.30;;;;;;;7.33;100.00;100159.50;5041268;28;20073;-59
2024/01/26 02:14:17;;;;;;;0.30;0.30;;;;;;;7.32;100.00;100165.88;5042118;28;20037;-59
2024/01/26 02:16:53;;;;;;;0.30;0.30;;;;;;;7.39;100.00;100161.38;5017906;28;20110;-59
2024/01/26 02:19:20;;;;;;;0.20;0.20;;;;;;;7.35;100.00;100168.13;5019507;28;20059;-59
2024/01/26 02:21:47;;;;;;;0.30;0.30;;;;;;;7.42;100.00;100166.31;5041052;28;20395;-59
2024/01/26 02:24:16;;;;;;;0.30;0.30;;;;;;;7.41;100.00;100159.31;5023555;28;20723;-59
2024/01/26 02:26:43;;;;;;;0.40;0.40;;;;;;;7.47;100.00;100147.88;5040619;28;20107;-59
2024/01/26 02:29:10;;;;;;;0.35;0.35;;;;;;;7.51;100.00;100143.78;5040385;28;20037;-59
2024/01/26 02:31:37;;;;;;;0.30;0.30;;;;;;;7.57;100.00;100142.97;5035898;28;20079;-59
2024/01/26 02:34:04;;;;;;;0.30;0.30;;;;;;;7.64;100.00;100144.84;5022239;28;20072;-59
2024/01/26 02:36:32;;;;;;;0.30;0.30;;;;;;;7.67;100.00;100150.59;5039125;28;20535;-59
2024/01/26 02:39:00;;;;;;;0.30;0.30;;;;;;;7.69;100.00;100161.09;5040715;28;20103;-59
2024/01/26 02:41:29;;;;;;;0.30;0.30;;;;;;;7.73;100.00;100156.97;5042195;28;20053;-59
2024/01/26 02:43:56;;;;;;;0.32;0.32;;;;;;;7.75;100.00;100162.94;5040841;28;20049;-59
2024/01/26 02:46:23;;;;;;;0.30;0.30;;;;;;;7.77;100.00;100163.56;5043641;28;20041;-58
2024/01/26 02:48:50;;;;;;;0.30;0.30;;;;;;;7.80;100.00;100157.81;5044341;28;20041;-59
2024/01/26 02:51:17;;;;;;;0.20;0.20;;;;;;;7.87;100.00;100157.84;5043213;28;20048;-59
2024/01/26 02:53:44;;;;;;;0.30;0.30;;;;;;;7.86;100.00;100154.38;5035695;28;20143;-59
2024/01/26 02:56:11;;;;;;;0.40;0.40;;;;;;;7.91;100.00;100159.91;5042539;28;20045;-59
2024/01/26 02:58:40;;;;;;;0.30;0.30;;;;;;;7.92;100.00;100156.22;5045157;28;20145;-59
2024/01/26 03:01:07;;;;;;;0.32;0.32;;;;;;;7.91;100.00;100151.91;5035045;28;20057;-59
2024/01/26 03:03:34;;;;;;;0.30;0.30;;;;;;;7.91;100.00;100151.91;5021042;28;20488;-59
2024/01/26 03:06:01;;;;;;;0.20;0.20;;;;;;;7.92;100.00;100164.22;5035135;28;20049;-59
2024/01/26 03:08:28;;;;;;;0.30;0.30;;;;;;;7.97;100.00;100159.09;5044543;28;20040;-59
2024/01/26 03:10:55;;;;;;;0.30;0.30;;;;;;;7.98;100.00;100158.06;5044082;28;20563;-59
2024/01/26 03:13:22;;;;;;;0.20;0.20;;;;;;;7.94;100.00;100148.00;5042125;28;20075;-59
2024/01/26 03:15:51;;;;;;;0.30;0.30;;;;;;;7.97;100.00;100132.41;5007077;28;20045;-59
2024/01/26 03:18:18;;;;;;;0.30;0.30;;;;;;;8.00;100.00;100131.97;5022756;28;20041;-59
2024/01/26 03:20:46;;;;;;;0.25;0.25;;;;;;;8.03;100.00;100129.94;5043788;28;20123;-59
2024/01/26 03:23:13;;;;;;;0.30;0.30;;;;;;;8.06;100.00;100121.50;5023033;28;20490;-59
2024/01/26 03:25:40;;;;;;;0.32;0.32;;;;;;;8.04;100.00;100120.88;5044012;28;20044;-59
2024/01/26 03:28:07;;;;;;;0.20;0.20;;;;;;;8.07;100.00;100115.16;5043498;28;20037;-59
2024/01/26 03:30:34;;;;;;;0.30;0.30;;;;;;;8.08;100.00;100120.28;5044592;28;20044;-58
2024/01/26 03:33:03;;;;;;;0.35;0.35;;;;;;;8.13;100.00;100115.16;5043420;28;20041;-59
2024/01/26 03:35:31;;;;;;;0.38;0.38;;;;;;;8.13;100.00;100117.00;5027443;28;20098;-59
2024/01/26 03:37:58;;;;;;;0.30;0.30;;;;;;;8.14;100.00;100124.00;5026510;28;20507;-58
2024/01/26 03:40:25;;;;;;;0.20;0.20;;;;;;;8.18;100.00;100117.22;5026269;28;20139;-59
2024/01/26 03:42:52;;;;;;;0.20;0.20;;;;;;;8.21;100.00;100122.13;5044405;28;20045;-59
2024/01/26 03:45:19;;;;;;;0.30;0.30;;;;;;;8.13;100.00;100125.03;5044028;28;20045;-59
2024/01/26 03:47:47;;;;;;;0.30;0.30;;;;;;;8.08;100.00;100122.13;5044130;28;20069;-59
2024/01/26 03:50:16;;;;;;;0.20;0.20;;;;;;;8.04;100.00;100120.88;5042682;28;20044;-59
2024/01/26 03:52:43;;;;;;;0.30;0.30;;;;;;;7.97;100.00;100137.75;5042375;28;20040;-59
2024/01/26 03:55:10;;;;;;;0.30;0.30;;;;;;;8.02;100.00;100144.31;5037760;28;20554;-59
2024/01/26 03:57:38;;;;;;;0.30;0.30;;;;;;;7.99;100.00;100146.38;5042838;28;20183;-59
2024/01/26 04:00:06;;;;;;;0.20;0.20;;;;;;;8.10;100.00;100133.44;5043514;28;20574;-58
2024/01/26 04:02:39;;;;;;;0.40;0.40;;;;;;;8.08;100.00;100135.50;5042967;28;20522;-59
2024/01/26 04:05:07;;;;;;;0.20;0.20;;;;;;;8.06;100.00;100130.34;5044234;28;20132;-59
2024/01/26 04:07:35;;;;;;;0.30;0.30;;;;;;;8.09;100.00;100135.28;5042619;28;20045;-59
2024/01/26 04:10:02;;;;;;;0.30;0.30;;;;;;;8.05;100.00;100144.72;5042859;28;20137;-59
2024/01/26 04:12:29;;;;;;;0.40;0.40;;;;;;;8.00;100.00;100141.84;5018860;28;20041;-59
2024/01/26 04:14:56;;;;;;;0.30;0.30;;;;;;;8.04;100.00;100137.75;5042863;28;20112;-59
2024/01/26 04:17:23;;;;;;;0.30;0.30;;;;;;;8.03;100.00;100124.59;5023056;28;20055;-59
2024/01/26 04:19:51;;;;;;;0.20;0.20;;;;;;;8.07;100.00;100115.16;5042743;28;20135;-59
2024/01/26 04:22:18;;;;;;;0.30;0.30;;;;;;;8.06;100.00;100108.16;5042790;28;20052;-59
2024/01/26 04:24:46;;;;;;;0.30;0.30;;;;;;;8.02;100.00;100097.09;5042958;28;20047;-59
2024/01/26 04:27:13;;;;;;;0.30;0.30;;;;;;;8.04;100.00;100099.53;5041738;28;20037;-59
2024/01/26 04:29:40;;;;;;;0.20;0.20;;;;;;;7.95;100.00;100097.06;5043941;28;20131;-59
2024/01/26 04:32:08;;;;;;;0.30;0.30;;;;;;;7.94;100.00;100089.28;5042498;28;20533;-59
2024/01/26 04:34:37;;;;;;;0.30;0.30;;;;;;;7.87;100.00;100102.63;5041408;28;20056;-59
2024/01/26 04:37:05;;;;;;;0.30;0.30;;;;;;;7.78;100.00;100096.63;5042390;28;20830;-59
2024/01/26 04:39:32;;;;;;;0.30;0.30;;;;;;;7.80;100.00;100091.09;5043766;28;20040;-59
2024/01/26 04:42:01;;;;;;;0.30;0.30;;;;;;;7.77;100.00;100078.16;5042893;28;20053;-59
2024/01/26 04:44:28;;;;;;;0.30;0.30;;;;;;;7.77;100.00;100070.16;5041781;28;20053;-59
2024/01/26 04:46:57;;;;;;;0.20;0.20;;;;;;;7.72;100.00;100068.09;5041754;28;20052;-58
2024/01/26 04:49:24;;;;;;;0.30;0.30;;;;;;;7.80;100.00;100067.09;5041166;28;20045;-59
2024/01/26 04:51:51;;;;;;;0.22;0.22;;;;;;;7.78;100.00;100063.78;5042575;28;20068;-59
2024/01/26 04:54:18;;;;;;;0.28;0.28;;;;;;;7.78;100.00;100064.59;5041952;28;20052;-59
2024/01/26 04:56:45;;;;;;;0.30;0.30;;;;;;;7.80;100.00;100052.94;5042580;28;20140;-59
2024/01/26 04:59:14;;;;;;;0.38;0.38;;;;;;;7.75;100.00;100042.84;5036370;28;20059;-59
2024/01/26 05:01:41;;;;;;;0.30;0.30;;;;;;;7.74;100.00;100047.38;5041316;28;20450;-58
2024/01/26 05:04:08;;;;;;;0.30;0.30;;;;;;;7.65;100.00;100058.44;5041979;28;20067;-59
2024/01/26 05:06:35;;;;;;;0.40;0.40;;;;;;;7.63;100.00;100065.81;5042323;28;20129;-58
2024/01/26 05:09:02;;;;;;;0.40;0.40;;;;;;;7.51;100.00;100078.94;5021010;28;20037;-59
2024/01/26 05:11:29;;;;;;;0.30;0.30;;;;;;;7.58;100.00;100079.78;5040283;28;20136;-59
2024/01/26 05:13:56;;;;;;;0.30;0.30;;;;;;;7.61;100.00;100089.22;5036268;28;20053;-59
2024/01/26 05:16:25;;;;;;;0.30;0.30;;;;;;;7.62;100.00;100075.69;5039795;28;24248;-59
2024/01/26 05:18:52;;;;;;;0.35;0.35;;;;;;;7.68;100.00;100082.03;5042054;28;20037;-59
2024/01/26 05:21:19;;;;;;;0.30;0.30;;;;;;;7.71;100.00;100078.97;5042260;28;20072;-59
2024/01/26 05:23:46;;;;;;;0.40;0.40;;;;;;;7.81;100.00;100079.38;5043269;28;20037;-59
2024/01/26 05:26:13;;;;;;;0.30;0.30;;;;;;;7.83;100.00;100085.34;5041820;28;20045;-59
2024/01/26 05:28:40;;;;;;;0.30;0.30;;;;;;;7.94;100.00;100091.97;5005113;28;20475;-58
2024/01/26 05:31:07;;;;;;;0.40;0.40;;;;;;;8.01;100.00;100084.75;5041978;28;20110;-59
2024/01/26 05:33:37;;;;;;;0.40;0.40;;;;;;;8.10;100.00;100066.69;5042069;28;20048;-59
2024/01/26 05:36:05;;;;;;;0.38;0.38;;;;;;;8.13;100.00;100071.63;5041601;28;20049;-59
2024/01/26 05:38:32;;;;;;;0.30;0.30;;;;;;;8.21;100.00;100069.56;5041865;28;20053;-59
2024/01/26 05:40:59;;;;;;;0.20;0.20;;;;;;;8.20;100.00;100080.44;5041857;28;20056;-59
2024/01/26 05:43:26;;;;;;;0.30;0.30;;;;;;;8.22;100.00;100081.06;5041345;28;20045;-59
2024/01/26 05:45:54;;;;;;;0.30;0.30;;;;;;;8.25;100.00;100080.66;5038777;28;20061;-59
2024/01/26 05:48:21;;;;;;;0.30;0.30;;;;;;;8.27;100.00;100080.47;5041668;28;20070;-59
2024/01/26 05:50:49;;;;;;;0.20;0.20;;;;;;;8.20;100.00;100061.75;5041686;28;20076;-59
2024/01/26 05:53:16;;;;;;;0.40;0.40;;;;;;;8.24;100.00;100057.66;5042231;28;20045;-58
2024/01/26 05:55:43;;;;;;;0.20;0.20;;;;;;;8.27;100.00;100046.56;5015268;28;20050;-58
2024/01/26 05:58:10;;;;;;;0.30;0.30;;;;;;;8.24;100.00;100038.97;5023342;28;20059;-59
2024/01/26 06:00:37;;;;;;;0.30;0.30;;;;;;;8.18;100.00;100042.44;5039066;28;20759;-59
2024/01/26 06:03:05;;;;;;;0.30;0.30;;;;;;;8.19;100.00;100033.41;5041899;28;20435;-59
2024/01/26 06:05:32;;;;;;;0.30;0.30;;;;;;;8.13;100.00;100029.69;5041725;28;20132;-59
2024/01/26 06:08:00;;;;;;;0.30;0.30;;;;;;;8.09;100.00;100017.00;5041946;28;20123;-59
2024/01/26 06:10:27;;;;;;;0.30;0.30;;;;;;;8.04;100.00;100014.94;5037490;28;20087;-59
2024/01/26 06:12:54;;;;;;;0.30;0.30;;;;;;;8.02;100.00;100008.97;5040454;28;20433;-59
2024/01/26 06:15:21;;;;;;;0.22;0.22;;;;;;;8.09;100.00;100017.00;5037354;28;20731;-59
2024/01/26 06:17:48;;;;;;;0.30;0.30;;;;;;;8.00;100.00;100014.53;5045493;28;20111;-59
2024/01/26 06:20:15;;;;;;;0.30;0.30;;;;;;;8.00;100.00;100024.38;5038088;28;20123;-59
2024/01/26 06:22:43;;;;;;;0.35;0.35;;;;;;;8.07;100.00;100040.41;5026823;28;20041;-59
2024/01/26 06:25:11;;;;;;;0.30;0.30;;;;;;;8.20;100.00;100043.06;5043781;28;20038;-59
2024/01/26 06:27:38;;;;;;;0.30;0.30;;;;;;;8.23;100.00;100037.31;5026864;28;20598;-59
2024/01/26 06:30:07;;;;;;;0.30;0.30;;;;;;;8.30;100.00;100027.44;5046050;28;20048;-59
2024/01/26 06:32:34;;;;;;;0.20;0.20;;;;;;;8.35;100.00;100022.28;5044381;28;20045;-59
2024/01/26 06:35:01;;;;;;;0.22;0.22;;;;;;;8.36;100.00;100033.78;5044480;28;20060;-59
2024/01/26 06:37:28;;;;;;;0.38;0.38;;;;;;;8.35;100.00;100038.31;5027205;28;20041;-59
2024/01/26 06:39:55;;;;;;;0.38;0.38;;;;;;;8.43;100.00;100031.97;5043813;28;20130;-59
2024/01/26 06:42:25;;;;;;;0.30;0.30;;;;;;;8.39;100.00;100034.25;5044488;28;20341;-59
2024/01/26 06:44:53;;;;;;;0.30;0.30;;;;;;;8.41;100.00;100016.16;5043477;28;20061;-59
2024/01/26 06:47:20;;;;;;;0.20;0.20;;;;;;;8.48;100.00;100012.63;5043380;28;20041;-59
2024/01/26 06:49:48;;;;;;;0.20;0.20;;;;;;;8.43;100.00;100008.72;5025088;28;20476;-59
2024/01/26 06:52:15;;;;;;;0.28;0.28;;;;;;;8.49;100.00;100003.59;5037811;28;20041;-59
2024/01/26 06:54:42;;;;;;;0.20;0.20;;;;;;;8.53;100.00;100007.47;5043349;28;20514;-59
2024/01/26 06:57:10;;;;;;;0.30;0.30;;;;;;;8.47;100.00;99982.44;5028559;28;20633;-60
2024/01/26 06:59:40;;;;;;;0.30;0.30;;;;;;;8.62;100.00;99979.50;5038797;28;23223;-60
2024/01/26 07:02:08;;;;;;;0.22;0.22;;;;;;;8.61;100.00;99968.00;5040528;28;20158;-60
2024/01/26 07:04:35;;;;;;;0.25;0.25;;;;;;;8.58;100.00;99992.44;5036615;28;20050;-59
2024/01/26 07:07:02;;;;;;;0.30;0.30;;;;;;;8.69;100.00;100003.53;5043562;28;20051;-59
2024/01/26 07:09:29;;;;;;;0.20;0.20;;;;;;;8.57;100.00;100012.19;5044625;28;20044;-59
2024/01/26 07:11:57;;;;;;;0.38;0.38;;;;;;;8.58;100.00;100002.31;5043858;28;20052;-59
2024/01/26 07:14:24;;;;;;;0.30;0.30;;;;;;;8.63;100.00;100005.19;5044092;28;20049;-59
2024/01/26 07:16:53;;;;;;;0.20;0.20;;;;;;;8.67;100.00;100001.06;5036926;28;20455;-59
2024/01/26 07:19:20;;;;;;;0.30;0.30;;;;;;;8.70;100.00;99986.47;5042987;28;20128;-59
2024/01/26 07:21:47;;;;;;;0.20;0.20;;;;;;;8.63;100.00;99987.28;5042948;28;20045;-59
2024/01/26 07:24:14;;;;;;;0.25;0.25;;;;;;;8.62;100.00;100000.88;5043581;28;20068;-58
2024/01/26 07:26:41;;;;;;;0.30;0.30;;;;;;;8.63;100.00;100003.31;5041004;28;20044;-61
2024/01/26 07:29:08;;;;;;;0.30;0.30;;;;;;;8.68;100.00;99991.19;5044374;28;20116;-59
2024/01/26 07:31:35;;;;;;;0.30;0.30;;;;;;;8.66;100.00;99987.91;5025826;28;20048;-58
2024/01/26 07:34:05;;;;;;;0.20;0.20;;;;;;;8.70;100.00;99987.28;5042718;28;20397;-58
2024/01/26 07:36:36;;;;;;;0.30;0.30;;;;;;;8.72;100.00;99974.53;5043591;28;21661;-58
2024/01/26 07:39:03;;;;;;;0.22;0.22;;;;;;;8.76;100.00;99969.56;5043310;28;20041;-58
2024/01/26 07:41:31;;;;;;;0.20;0.20;;;;;;;8.70;100.00;99959.75;5024671;28;20045;-59
2024/01/26 07:43:59;;;;;;;0.22;0.22;;;;;;;8.74;100.00;99966.31;5041805;28;20052;-59
2024/01/26 07:46:26;;;;;;;0.20;0.20;;;;;;;8.80;100.00;99954.75;5043346;28;20052;-59
2024/01/26 07:48:55;;;;;;;0.20;0.20;;;;;;;8.77;100.00;99947.19;5025980;28;20057;-59
2024/01/26 07:51:23;;;;;;;0.20;0.20;;;;;;;8.80;100.00;99949.41;5037905;28;20067;-59
2024/01/26 07:53:51;;;;;;;0.20;0.20;;;;;;;8.79;100.00;99951.28;5037214;28;20060;-58
2024/01/26 07:56:18;;;;;;;0.30;0.30;;;;;;;8.76;100.00;99951.72;5045094;28;20724;-59
2024/01/26 07:58:45;;;;;;;0.20;0.20;;;;;;;8.82;100.00;99939.34;5044454;28;20152;-59
2024/01/26 08:01:13;;;;;;;0.20;0.20;;;;;;;8.78;100.00;99946.94;5041194;28;20064;-59
2024/01/26 08:03:40;;;;;;;0.22;0.22;;;;;;;8.72;100.00;99937.13;5043302;28;20048;-60
2024/01/26 08:06:07;;;;;;;0.22;0.22;;;;;;;8.75;100.00;99920.66;5037836;28;20510;-59
2024/01/26 08:08:36;;;;;;;0.30;0.30;;;;;;;8.69;100.00;99926.84;5042242;28;20043;-58
2024/01/26 08:11:03;;;;;;;0.20;0.20;;;;;;;8.72;100.00;99922.94;5043568;28;20041;-60
2024/01/26 08:13:30;;;;;;;0.20;0.20;;;;;;;8.72;100.00;99921.06;5040255;28;20275;-59
2024/01/26 08:15:57;;;;;;;0.20;0.20;;;;;;;8.81;100.00;99922.47;5041405;28;20114;-60
2024/01/26 08:18:24;;;;;;;0.20;0.20;;;;;;;8.94;100.00;99924.25;5043179;28;20116;-58
2024/01/26 08:20:52;;;;;;;0.20;0.20;;;;;;;8.91;100.00;99926.53;5037661;28;20060;-57
2024/01/26 08:23:19;;;;;;;0.20;0.20;;;;;;;8.88;100.00;99934.97;5041698;28;20118;-59
2024/01/26 08:25:47;;;;;;;0.30;0.30;;;;;;;8.97;100.00;99923.81;5041480;28;20510;-58
2024/01/26 08:28:14;;;;;;;0.28;0.28;;;;;;;8.92;100.00;99922.84;5041192;28;20136;-59
2024/01/26 08:30:42;;;;;;;0.20;0.20;;;;;;;8.93;100.00;99937.81;5041543;28;20479;-59
2024/01/26 08:33:09;;;;;;;0.20;0.20;;;;;;;8.97;100.00;99934.50;5041178;28;20123;-59
2024/01/26 08:35:36;;;;;;;0.30;0.30;;;;;;;8.99;100.00;99936.97;5041656;28;20673;-60
2024/01/26 08:38:03;;;;;;;0.20;0.20;;;;;;;9.01;100.00;99945.59;5041225;28;22287;-59
2024/01/26 08:40:31;;;;;;;0.30;0.30;;;;;;;8.98;100.00;99946.84;5039949;28;20045;-58
2024/01/26 08:42:59;;;;;;;0.30;0.30;;;;;;;9.07;100.00;99944.75;5047389;28;20854;-59
2024/01/26 08:45:26;;;;;;;0.20;0.20;;;;;;;9.06;100.00;99938.59;5016479;28;20506;-63
2024/01/26 08:47:53;;;;;;;0.20;0.20;;;;;;;9.06;100.00;99938.59;5040629;28;20045;-58
2024/01/26 08:50:20;;;;;;;0.20;0.20;;;;;;;9.12;100.00;99931.53;5040739;28;20503;-59
2024/01/26 08:52:48;;;;;;;0.30;0.30;;;;;;;9.11;100.00;99932.59;5040231;28;20433;-60
2024/01/26 08:55:16;;;;;;;0.30;0.30;;;;;;;9.24;100.00;99929.00;5040535;28;20496;-60
2024/01/26 08:57:43;;;;;;;0.20;0.20;;;;;;;9.15;100.00;99925.75;5038118;28;20142;-59
2024/01/26 09:00:14;;;;;;;0.20;0.20;;;;;;;9.07;100.00;99915.34;5041097;28;20079;-60
2024/01/26 09:02:41;;;;;;;0.30;0.30;;;;;;;9.20;100.00;99917.91;5037939;28;20048;-60
2024/01/26 09:05:10;;;;;;;0.20;0.20;;;;;;;9.19;100.00;99932.31;5036967;28;20083;-60
2024/01/26 09:07:37;;;;;;;0.20;0.20;;;;;;;9.05;100.00;99941.47;5020741;28;20059;-61
2024/01/26 09:10:05;;;;;;;0.30;0.30;;;;;;;9.02;100.00;99931.19;5040501;28;20128;-60
2024/01/26 09:12:33;;;;;;;0.20;0.20;;;;;;;9.09;100.00;99941.88;5037877;28;20051;-59
2024/01/26 09:15:00;;;;;;;0.22;0.22;;;;;;;9.01;100.00;99942.91;5043047;28;20100;-60
2024/01/26 09:17:28;;;;;;;0.28;0.28;;;;;;;9.11;100.00;99940.63;5040829;28;20045;-60
2024/01/26 09:19:55;;;;;;;0.15;0.15;;;;;;;9.10;100.00;99946.97;5040909;28;20071;-60
2024/01/26 09:22:24;;;;;;;0.28;0.28;;;;;;;9.03;100.00;99930.16;5020595;28;20079;-59
2024/01/26 09:24:51;;;;;;;0.20;0.20;;;;;;;9.01;100.00;99926.88;5041020;28;20464;-59
2024/01/26 09:27:20;;;;;;;0.30;0.30;;;;;;;9.00;100.00;99922.56;5041330;28;20053;-59
2024/01/26 09:29:47;;;;;;;0.30;0.30;;;;;;;9.14;100.00;99926.81;5041881;28;20039;-58
2024/01/26 09:32:14;;;;;;;0.30;0.30;;;;;;;9.13;100.00;99922.47;5039919;28;20526;-59
2024/01/26 09:34:44;;;;;;;0.25;0.25;;;;;;;9.20;100.00;99915.22;5038759;28;20761;-60
2024/01/26 09:37:11;;;;;;;0.30;0.30;;;;;;;9.26;100.00;99911.72;5041935;28;20043;-60
2024/01/26 09:39:38;;;;;;;0.25;0.25;;;;;;;9.26;100.00;99925.09;5041448;28;20069;-58
2024/01/26 09:42:06;;;;;;;0.30;0.30;;;;;;;9.21;100.00;99924.91;5040564;28;20060;-59
2024/01/26 09:44:33;;;;;;;0.30;0.30;;;;;;;9.19;100.00;99920.81;5041142;28;20059;-59
2024/01/26 09:47:01;;;;;;;0.20;0.20;;;;;;;9.25;100.00;99933.31;5039064;28;20045;-60
2024/01/26 09:49:28;;;;;;;0.20;0.20;;;;;;;9.31;100.00;99935.13;5040986;28;20110;-60
2024/01/26 09:51:57;;;;;;;0.20;0.20;;;;;;;9.39;100.00;99937.53;5022195;28;20531;-60
2024/01/26 09:54:24;;;;;;;0.20;0.20;;;;;;;9.42;100.00;99942.44;5041943;28;20048;-61
2024/01/26 09:56:51;;;;;;;0.20;0.20;;;;;;;9.48;100.00;99951.47;5044548;28;20049;-60
2024/01/26 09:59:18;;;;;;;0.30;0.30;;;;;;;9.43;100.00;99951.28;5043670;28;20033;-60
2024/01/26 10:01:46;;;;;;;0.30;0.30;;;;;;;9.45;100.00;99958.06;5043805;28;20065;-60
2024/01/26 10:04:13;;;;;;;0.30;0.30;;;;;;;9.55;100.00;99957.56;5034906;28;20048;-61
2024/01/26 10:06:40;;;;;;;0.20;0.20;;;;;;;9.55;100.00;99970.97;5046269;28;20431;-59
2024/01/26 10:09:10;;;;;;;0.20;0.20;;;;;;;9.69;100.00;99967.16;5044464;28;20052;-59
2024/01/26 10:11:37;;;;;;;0.20;0.20;;;;;;;9.64;100.00;99977.69;5045878;28;20495;-58
2024/01/26 10:14:04;;;;;;;0.20;0.20;;;;;;;9.72;100.00;99969.38;5044232;28;20135;-61
2024/01/26 10:16:31;;;;;;;0.30;0.30;;;;;;;9.75;100.00;99962.78;5043169;28;20040;-58
2024/01/26 10:18:58;;;;;;;0.28;0.28;;;;;;;9.69;100.00;99959.13;5034691;28;20053;-59
2024/01/26 10:21:25;;;;;;;0.30;0.30;;;;;;;9.65;100.00;99952.56;5044750;28;20118;-59
2024/01/26 10:23:53;;;;;;;0.20;0.20;;;;;;;9.71;100.00;99962.41;5044590;28;20095;-60
2024/01/26 10:26:21;;;;;;;0.30;0.30;;;;;;;9.72;100.00;99956.00;5043390;28;20037;-58
2024/01/26 10:28:48;;;;;;;0.20;0.20;;;;;;;9.80;100.00;99970.16;5040199;28;20071;-58
2024/01/26 10:31:15;;;;;;;0.20;0.20;;;;;;;9.76;100.00;99956.41;5044723;28;20404;-59
2024/01/26 10:33:43;;;;;;;0.38;0.38;;;;;;;9.91;100.00;99962.22;5044155;28;20113;-58
2024/01/26 10:36:10;;;;;;;0.20;0.20;;;;;;;9.80;100.00;99957.56;5026912;28;20063;-59
2024/01/26 10:38:37;;;;;;;0.30;0.30;;;;;;;9.89;100.00;99960.81;5045335;28;20072;-59
2024/01/26 10:41:05;;;;;;;0.20;0.20;;;;;;;9.87;100.00;99966.38;5045637;28;20049;-59
2024/01/26 10:43:33;;;;;;;0.15;0.15;;;;;;;9.90;100.00;99965.13;5044661;28;20531;-60
2024/01/26 10:46:02;;;;;;;0.20;0.20;;;;;;;9.96;100.00;99961.56;5019519;28;20053;-58
2024/01/26 10:48:29;;;;;;;0.20;0.20;;;;;;;9.86;100.00;99961.22;5002915;28;20038;-61
2024/01/26 10:50:56;;;;;;;0.20;0.20;;;;;;;9.82;100.00;99955.50;5004424;28;20056;-60
2024/01/26 10:53:23;;;;;;;0.30;0.30;;;;;;;9.82;100.00;99954.69;4999778;28;20542;-59
2024/01/26 10:55:50;;;;;;;0.20;0.20;;;;;;;9.81;100.00;99947.69;4999578;28;20038;-59
2024/01/26 10:58:19;;;;;;;0.30;0.30;;;;;;;10.03;100.00;99943.56;4999925;28;20822;-59
2024/01/26 11:00:48;;;;;;;0.20;0.20;;;;;;;9.98;100.00;99934.56;4998505;28;20041;-58
2024/01/26 11:03:15;;;;;;;0.20;0.20;;;;;;;10.02;100.00;99931.22;5000800;28;20042;-58
2024/01/26 11:05:42;;;;;;;0.20;0.20;;;;;;;9.96;100.00;99931.28;5000127;28;20500;-58
2024/01/26 11:08:12;;;;;;;0.20;0.20;;;;;;;10.03;100.00;99934.72;5003365;28;20429;-60
2024/01/26 11:10:39;;;;;;;0.17;0.17;;;;;;;10.07;100.00;99928.69;5001885;28;20044;-59
2024/01/26 11:13:09;;;;;;;0.30;0.30;;;;;;;9.93;100.00;99921.81;5002513;28;20088;-60
2024/01/26 11:15:36;;;;;;;0.30;0.30;;;;;;;10.08;100.00;99918.78;5002934;28;20069;-58
2024/01/26 11:18:08;;;;;;;0.20;0.20;;;;;;;10.17;100.00;99916.66;5003422;28;20101;-60
2024/01/26 11:20:36;;;;;;;0.20;0.20;;;;;;;10.21;100.00;99917.81;4998609;28;20525;-59
2024/01/26 11:23:06;;;;;;;0.20;0.20;;;;;;;10.28;100.00;99919.44;5003817;28;20188;-59
2024/01/26 11:25:37;;;;;;;0.22;0.22;;;;;;;10.34;100.00;99910.50;5001969;28;20046;-58
2024/01/26 11:28:04;;;;;;;0.15;0.15;;;;;;;10.31;100.00;99913.63;5000814;28;20475;-59